Time;durP1;ratioP1;P1;durP2;ratioP2;P2;SDS_P1;SDS_P2;PMS_P1;PMS_P2;Temp;Humidity;BMP_temperature;BMP_pressure;BME280_temperature;BME280_humidity;BME280_pressure;Samples;Min_cycle;Max_cycle;Signal;HPM_P1;HPM_P2
2023/05/12 00:00:18;;;;;;;1999.90;999.90;;;;;;;10.17;100.00;93606.88;5106010;28;20196;-59
2023/05/12 00:02:43;;;;;;;1999.90;999.90;;;;;;;10.17;100.00;93604.91;5106023;28;20170;-59
2023/05/12 00:05:09;;;;;;;1999.90;999.90;;;;;;;10.17;100.00;93606.88;5105388;28;20219;-59
2023/05/12 00:07:35;;;;;;;1999.90;999.90;;;;;;;10.16;100.00;93610.81;5105330;28;20193;-60
2023/05/12 00:10:00;;;;;;;1999.90;999.90;;;;;;;10.13;100.00;93613.19;5105356;28;20182;-60
2023/05/12 00:12:26;;;;;;;1999.90;999.90;;;;;;;10.14;100.00;93608.50;5105733;28;20210;-60
2023/05/12 00:14:51;;;;;;;1999.90;999.90;;;;;;;10.09;100.00;93615.28;5106048;28;20182;-60
2023/05/12 00:17:17;;;;;;;1999.90;999.90;;;;;;;10.01;100.00;93622.19;5105465;28;20242;-60
2023/05/12 00:19:43;;;;;;;1999.90;999.90;;;;;;;9.95;100.00;93629.38;5105386;28;20335;-60
2023/05/12 00:22:11;;;;;;;1999.90;999.90;;;;;;;9.94;100.00;93627.88;5104896;28;20182;-60
2023/05/12 00:24:37;;;;;;;1999.90;999.90;;;;;;;9.96;100.00;93624.72;5105631;28;20176;-60
2023/05/12 00:27:02;;;;;;;1999.90;999.90;;;;;;;9.93;100.00;93626.34;5105447;28;20208;-59
2023/05/12 00:29:28;;;;;;;1999.90;999.90;;;;;;;9.93;100.00;93615.44;5105217;28;20178;-63
2023/05/12 00:31:54;;;;;;;1999.90;999.90;;;;;;;9.95;100.00;93623.94;5105073;28;20487;-60
2023/05/12 00:34:20;;;;;;;1999.90;999.90;;;;;;;9.92;100.00;93619.34;5104981;28;20173;-59
2023/05/12 00:36:45;;;;;;;1999.90;999.90;;;;;;;9.92;100.00;93621.34;5104822;28;20171;-60
2023/05/12 00:39:10;;;;;;;1999.90;999.90;;;;;;;9.95;100.00;93617.75;5104836;28;20236;-59
2023/05/12 00:41:36;;;;;;;1999.90;999.90;;;;;;;9.95;100.00;93612.28;5104931;28;20247;-60
2023/05/12 00:44:01;;;;;;;1999.90;999.90;;;;;;;9.98;100.00;93614.09;5104679;28;20174;-60
2023/05/12 00:46:26;;;;;;;1999.90;999.90;;;;;;;9.94;100.00;93616.97;5104617;28;20177;-60
2023/05/12 00:48:52;;;;;;;1999.90;999.90;;;;;;;9.86;100.00;93615.69;5104601;28;20183;-60
2023/05/12 00:51:18;;;;;;;1999.90;999.90;;;;;;;9.84;100.00;93622.78;5104547;28;20216;-60
2023/05/12 00:53:44;;;;;;;1999.90;999.90;;;;;;;9.84;100.00;93620.81;5105141;28;20250;-60
2023/05/12 00:56:10;;;;;;;1999.90;999.90;;;;;;;9.79;100.00;93621.38;5104391;28;20176;-60
2023/05/12 00:58:36;;;;;;;1999.90;999.90;;;;;;;9.76;100.00;93627.72;5105202;28;20229;-60
2023/05/12 01:01:01;;;;;;;1999.90;999.90;;;;;;;9.76;100.00;93622.25;5104409;28;20396;-60
2023/05/12 01:03:27;;;;;;;1999.90;999.90;;;;;;;9.78;100.00;93622.59;5104945;28;20174;-60
2023/05/12 01:06:14;;;;;;;1999.90;999.90;;;;;;;9.81;100.00;93618.22;5104544;28;20183;-60
2023/05/12 01:08:41;;;;;;;1999.90;999.90;;;;;;;9.80;100.00;93617.44;5104143;28;20176;-60
2023/05/12 01:11:06;;;;;;;1999.90;999.90;;;;;;;9.83;100.00;93615.78;5104624;28;20275;-60
2023/05/12 01:13:31;;;;;;;1999.90;999.90;;;;;;;9.82;100.00;93625.19;5104303;28;20176;-60
2023/05/12 01:15:59;;;;;;;1999.90;999.90;;;;;;;9.82;100.00;93612.31;5104706;28;20179;-60
2023/05/12 01:18:26;;;;;;;1999.90;999.90;;;;;;;9.83;100.00;93613.84;5104644;28;20478;-61
2023/05/12 01:20:54;;;;;;;1999.90;999.90;;;;;;;9.83;100.00;93610.34;5103997;28;20219;-61
2023/05/12 01:23:23;;;;;;;1999.90;999.90;;;;;;;9.84;100.00;93607.19;5104073;28;20214;-60
2023/05/12 01:25:49;;;;;;;1999.90;999.90;;;;;;;9.87;100.00;93617.22;5104662;28;20184;-61
2023/05/12 01:28:16;;;;;;;1999.90;999.90;;;;;;;9.86;100.00;93610.25;5104104;28;20177;-60
2023/05/12 01:30:42;;;;;;;1999.90;999.90;;;;;;;9.85;100.00;93608.72;5104544;28;20222;-60
2023/05/12 01:33:08;;;;;;;1999.90;999.90;;;;;;;9.84;100.00;93612.63;5103767;28;20180;-60
2023/05/12 01:35:34;;;;;;;1999.90;999.90;;;;;;;9.82;100.00;93612.31;5104600;28;20178;-60
2023/05/12 01:37:59;;;;;;;1999.90;999.90;;;;;;;9.83;100.00;93608.38;5104453;28;20204;-60
2023/05/12 01:40:25;;;;;;;1999.90;999.90;;;;;;;9.83;100.00;93618.53;5104546;28;20245;-60
2023/05/12 01:42:51;;;;;;;1999.90;999.90;;;;;;;9.79;100.00;93610.47;5104305;28;20185;-61
2023/05/12 01:45:16;;;;;;;1999.90;999.90;;;;;;;9.81;100.00;93615.50;5103920;28;20197;-60
2023/05/12 01:47:41;;;;;;;1999.90;999.90;;;;;;;9.77;100.00;93618.31;5104013;28;20186;-60
2023/05/12 01:50:07;;;;;;;1999.90;999.90;;;;;;;9.75;100.00;93619.97;5104497;28;20244;-61
2023/05/12 01:52:33;;;;;;;1999.90;999.90;;;;;;;9.73;100.00;93617.69;5103885;28;20228;-60
2023/05/12 01:54:58;;;;;;;1999.90;999.90;;;;;;;9.73;100.00;93612.22;5103874;28;20173;-61
2023/05/12 01:57:24;;;;;;;1999.90;999.90;;;;;;;9.72;100.00;93613.44;5104614;28;20177;-60
2023/05/12 01:59:49;;;;;;;1999.90;999.90;;;;;;;9.70;100.00;93617.81;5104040;28;20214;-61
2023/05/12 02:02:14;;;;;;;1999.90;999.90;;;;;;;9.68;100.00;93618.25;5104387;28;20299;-60
2023/05/12 02:04:40;;;;;;;1999.90;999.90;;;;;;;9.64;100.00;93623.06;5103847;28;20185;-60
2023/05/12 02:07:05;;;;;;;1999.90;999.90;;;;;;;9.62;100.00;93622.00;5104267;28;20245;-60
2023/05/12 02:09:30;;;;;;;1999.90;999.90;;;;;;;9.61;100.00;93615.00;5104250;28;20225;-60
2023/05/12 02:11:56;;;;;;;1999.90;999.90;;;;;;;9.60;100.00;93621.66;5103269;28;20199;-60
2023/05/12 02:14:21;;;;;;;1999.90;999.90;;;;;;;9.62;100.00;93617.28;5103633;28;20205;-60
2023/05/12 02:16:51;;;;;;;1999.90;999.90;;;;;;;9.59;100.00;93618.16;5103746;28;20176;-62
2023/05/12 02:19:16;;;;;;;1999.90;999.90;;;;;;;9.60;100.00;93614.25;5104367;28;20173;-60
2023/05/12 02:21:44;;;;;;;1999.90;999.90;;;;;;;9.61;100.00;93618.50;5103492;28;20245;-60
2023/05/12 02:24:10;;;;;;;1999.90;999.90;;;;;;;9.63;100.00;93613.38;5103458;28;20177;-60
2023/05/12 02:26:35;;;;;;;1999.90;999.90;;;;;;;9.62;100.00;93614.56;5104140;28;20186;-60
2023/05/12 02:29:00;;;;;;;1999.90;999.90;;;;;;;9.62;100.00;93608.38;5103491;28;20263;-60
2023/05/12 02:31:26;;;;;;;1999.90;999.90;;;;;;;9.64;100.00;93609.44;5103631;28;20208;-61
2023/05/12 02:33:51;;;;;;;1999.90;999.90;;;;;;;9.69;100.00;93600.69;5103382;28;20180;-61
2023/05/12 02:36:16;;;;;;;1999.90;999.90;;;;;;;9.71;100.00;93603.75;5103441;28;20177;-61
2023/05/12 02:38:42;;;;;;;1999.90;999.90;;;;;;;9.71;100.00;93606.47;5103911;28;20184;-61
2023/05/12 02:41:07;;;;;;;1999.90;999.90;;;;;;;9.70;100.00;93606.91;5103286;28;20179;-61
2023/05/12 02:43:32;;;;;;;1999.90;999.90;;;;;;;9.73;100.00;93601.34;5103846;28;20173;-60
2023/05/12 02:45:58;;;;;;;1999.90;999.90;;;;;;;9.69;100.00;93606.16;5105798;28;20194;-61
2023/05/12 02:48:23;;;;;;;1999.90;999.90;;;;;;;9.69;100.00;93605.41;5107404;28;20182;-61
2023/05/12 02:50:48;;;;;;;1999.90;999.90;;;;;;;9.68;100.00;93610.09;5107194;28;20208;-61
2023/05/12 02:53:14;;;;;;;1999.90;999.90;;;;;;;9.65;100.00;93613.69;5107238;28;20173;-60
2023/05/12 02:55:39;;;;;;;1999.90;999.90;;;;;;;9.61;100.00;93610.31;5107417;28;20173;-61
2023/05/12 02:58:05;;;;;;;1999.90;999.90;;;;;;;9.62;100.00;93620.00;5107016;28;20193;-61
2023/05/12 03:00:30;;;;;;;1999.90;999.90;;;;;;;9.58;100.00;93615.91;5106847;28;20240;-61
2023/05/12 03:02:55;;;;;;;1999.90;999.90;;;;;;;9.60;100.00;93616.19;5107168;28;20203;-61
2023/05/12 03:05:21;;;;;;;1999.90;999.90;;;;;;;9.63;100.00;93613.38;5106593;28;20170;-61
2023/05/12 03:07:49;;;;;;;1999.90;999.90;;;;;;;9.65;100.00;93612.91;5106572;28;20276;-61
2023/05/12 03:10:16;;;;;;;1999.90;999.90;;;;;;;9.68;100.00;93610.09;5106992;28;20213;-60
2023/05/12 03:12:41;;;;;;;1999.90;999.90;;;;;;;9.64;100.00;93614.91;5106892;28;20208;-61
2023/05/12 03:15:07;;;;;;;1999.90;999.90;;;;;;;9.58;100.00;93624.81;5106182;28;20207;-61
2023/05/12 03:17:33;;;;;;;1999.90;999.90;;;;;;;9.57;100.00;93631.47;5106980;28;20175;-61
2023/05/12 03:19:58;;;;;;;1999.90;999.90;;;;;;;9.54;100.00;93637.03;5106628;28;20211;-61
2023/05/12 03:22:24;;;;;;;1999.90;999.90;;;;;;;9.55;100.00;93633.13;5106495;28;20174;-61
2023/05/12 03:24:50;;;;;;;1999.90;999.90;;;;;;;9.54;100.00;93632.34;5106184;28;20216;-61
2023/05/12 03:27:15;;;;;;;1999.90;999.90;;;;;;;9.60;100.00;93619.69;5106199;28;20232;-61
2023/05/12 03:29:41;;;;;;;1999.90;999.90;;;;;;;9.54;100.00;93637.78;5106303;28;20210;-61
2023/05/12 03:32:07;;;;;;;1999.90;999.90;;;;;;;9.54;100.00;93628.84;5105976;28;20204;-61
2023/05/12 03:34:32;;;;;;;1999.90;999.90;;;;;;;9.53;100.00;93640.97;5106520;28;20198;-61
2023/05/12 03:36:58;;;;;;;1999.90;999.90;;;;;;;9.55;100.00;93633.88;5105922;28;20175;-61
2023/05/12 03:39:23;;;;;;;1999.90;999.90;;;;;;;9.48;100.00;93641.53;5105918;28;20205;-63
2023/05/12 03:41:49;;;;;;;1999.90;999.90;;;;;;;9.50;100.00;93636.38;5105870;28;20235;-62
2023/05/12 03:44:14;;;;;;;1999.90;999.90;;;;;;;9.43;100.00;93631.94;5106146;28;20265;-61
2023/05/12 03:46:40;;;;;;;1999.90;999.90;;;;;;;9.45;100.00;93635.00;5105728;28;20178;-61
2023/05/12 03:49:05;;;;;;;1999.90;999.90;;;;;;;9.41;100.00;93633.56;5106467;28;20178;-61
2023/05/12 03:51:31;;;;;;;1999.90;999.90;;;;;;;9.47;100.00;93626.38;5105689;28;20211;-61
2023/05/12 03:53:56;;;;;;;1999.90;999.90;;;;;;;9.47;100.00;93631.84;5105539;28;20176;-61
2023/05/12 03:56:22;;;;;;;1999.90;999.90;;;;;;;9.50;100.00;93628.22;5105504;28;20174;-61
2023/05/12 03:58:47;;;;;;;1999.90;999.90;;;;;;;9.53;100.00;93632.78;5105507;28;20181;-61
2023/05/12 04:01:13;;;;;;;1999.90;999.90;;;;;;;9.51;100.00;93633.22;5105958;28;20197;-61
2023/05/12 04:03:40;;;;;;;1999.90;999.90;;;;;;;9.55;100.00;93628.41;5105999;28;20213;-61
2023/05/12 04:06:05;;;;;;;1999.90;999.90;;;;;;;9.47;100.00;93640.75;5105209;28;20221;-61
2023/05/12 04:08:31;;;;;;;1999.90;999.90;;;;;;;9.49;100.00;93630.19;5105278;28;20183;-61
2023/05/12 04:10:58;;;;;;;1999.90;999.90;;;;;;;9.55;100.00;93631.13;5105232;28;20224;-61
2023/05/12 04:13:24;;;;;;;1999.90;999.90;;;;;;;9.64;100.00;93635.91;5105258;28;20243;-61
2023/05/12 04:15:49;;;;;;;1999.90;999.90;;;;;;;9.66;100.00;93631.56;5105694;28;20300;-62
2023/05/12 04:18:15;;;;;;;1999.90;999.90;;;;;;;9.76;100.00;93633.16;5105175;28;20182;-61
2023/05/12 04:20:41;;;;;;;1999.90;999.90;;;;;;;9.84;100.00;93629.00;5104884;28;20223;-61
2023/05/12 04:23:06;;;;;;;1999.90;999.90;;;;;;;9.95;100.00;93623.94;5105044;28;20241;-61
2023/05/12 04:25:32;;;;;;;1999.90;999.90;;;;;;;9.99;100.00;93623.81;5105091;28;20261;-61
2023/05/12 04:27:58;;;;;;;1999.90;999.90;;;;;;;10.14;100.00;93620.16;5104963;28;20175;-61
2023/05/12 04:30:23;;;;;;;1999.90;999.90;;;;;;;10.21;100.00;93618.41;5105075;28;20331;-61
2023/05/12 04:32:48;;;;;;;1999.90;999.90;;;;;;;10.30;100.00;93621.22;5105350;28;20174;-61
2023/05/12 04:35:14;;;;;;;1999.90;999.90;;;;;;;10.38;100.00;93625.19;5104719;28;20195;-64
2023/05/12 04:37:40;;;;;;;1999.90;999.90;;;;;;;10.39;100.00;93627.50;5104694;28;20198;-60
2023/05/12 04:40:07;;;;;;;1999.90;999.90;;;;;;;10.51;100.00;93626.66;5104702;28;20182;-62
2023/05/12 04:42:34;;;;;;;1999.90;999.90;;;;;;;10.55;100.00;93635.47;5105170;28;20187;-61
2023/05/12 04:44:59;;;;;;;1999.90;999.90;;;;;;;10.63;100.00;93633.25;5104499;28;20193;-61
2023/05/12 04:47:25;;;;;;;1999.90;999.90;;;;;;;10.70;100.00;93643.91;5105095;28;20183;-63
2023/05/12 04:49:50;;;;;;;1999.90;999.90;;;;;;;10.61;100.00;93658.25;5104826;28;20175;-62
2023/05/12 04:52:15;;;;;;;1999.90;999.90;;;;;;;10.59;100.00;93662.66;5104910;28;20270;-61
2023/05/12 04:54:41;;;;;;;1999.90;999.90;;;;;;;10.62;100.00;93670.69;5104431;28;20176;-61
2023/05/12 04:57:07;;;;;;;1999.90;999.90;;;;;;;10.63;100.00;93674.19;5104313;28;20169;-62
2023/05/12 04:59:32;;;;;;;1999.90;999.90;;;;;;;10.65;100.00;93679.94;5104425;28;20177;-63
2023/05/12 05:01:58;;;;;;;1999.90;999.90;;;;;;;10.70;100.00;93682.13;5104275;28;20212;-61
2023/05/12 05:04:23;;;;;;;1999.90;999.90;;;;;;;10.69;100.00;93686.81;5104322;28;20207;-64
2023/05/12 05:06:48;;;;;;;1999.90;999.90;;;;;;;10.70;100.00;93698.50;5104111;28;20195;-63
2023/05/12 05:09:14;;;;;;;1999.90;999.90;;;;;;;10.70;100.00;93706.69;5103839;28;20168;-63
2023/05/12 05:11:39;;;;;;;1999.90;999.90;;;;;;;10.74;100.00;93710.06;5104648;28;20328;-63
2023/05/12 05:14:05;;;;;;;1999.90;999.90;;;;;;;10.82;100.00;93714.78;5104566;28;20171;-61
2023/05/12 05:16:30;;;;;;;1999.90;999.90;;;;;;;10.97;100.00;93706.84;5103928;28;20226;-63
2023/05/12 05:18:55;;;;;;;1999.90;999.90;;;;;;;11.13;100.00;93714.81;5104064;28;20246;-63
2023/05/12 05:21:21;;;;;;;1999.90;999.90;;;;;;;11.27;100.00;93709.59;5104135;28;20218;-62
2023/05/12 05:23:46;;;;;;;1999.90;999.90;;;;;;;11.36;100.00;93717.09;5104214;28;20172;-62
2023/05/12 05:26:11;;;;;;;1999.90;999.90;;;;;;;11.47;100.00;93728.38;5103875;28;20221;-62
2023/05/12 05:28:38;;;;;;;1999.90;999.90;;;;;;;11.44;100.00;93746.41;5103960;28;20168;-62
2023/05/12 05:31:04;;;;;;;1999.90;999.90;;;;;;;11.43;100.00;93772.22;5103570;28;20200;-62
2023/05/12 05:33:30;;;;;;;1999.90;999.90;;;;;;;11.55;100.00;93778.81;5104240;28;20251;-61
2023/05/12 05:35:56;;;;;;;1999.90;999.90;;;;;;;11.63;100.00;93810.94;5103896;28;20164;-62
2023/05/12 05:38:21;;;;;;;1999.90;999.90;;;;;;;11.66;100.00;93828.41;5104586;28;20172;-61
2023/05/12 05:40:46;;;;;;;1999.90;999.90;;;;;;;11.64;100.00;93886.28;5103865;28;20176;-62
2023/05/12 05:43:12;;;;;;;1999.90;999.90;;;;;;;11.75;100.00;93935.13;5104315;28;20168;-62
2023/05/12 05:45:37;;;;;;;1999.90;999.90;;;;;;;11.79;100.00;93965.81;5103884;28;20218;-63
2023/05/12 05:48:03;;;;;;;1999.90;999.90;;;;;;;11.80;100.00;94008.41;5104209;28;20202;-63
2023/05/12 05:50:28;;;;;;;1999.90;999.90;;;;;;;12.02;100.00;94020.13;5104450;28;20184;-64
2023/05/12 05:52:54;;;;;;;1999.90;999.90;;;;;;;12.15;100.00;94039.94;5103586;28;20173;-63
2023/05/12 05:55:20;;;;;;;1999.90;999.90;;;;;;;12.21;100.00;94068.28;5103603;28;20179;-64
2023/05/12 05:57:46;;;;;;;1999.90;999.90;;;;;;;12.22;100.00;94108.13;5103556;28;20240;-64
2023/05/12 06:00:13;;;;;;;1999.90;999.90;;;;;;;12.37;100.00;94140.03;5104131;28;20179;-63
2023/05/12 06:02:39;;;;;;;1999.90;999.90;;;;;;;12.41;100.00;94172.75;5103606;28;20180;-62
2023/05/12 06:05:05;;;;;;;1999.90;999.90;;;;;;;12.30;100.00;94229.84;5103462;28;20173;-63
2023/05/12 06:07:30;;;;;;;1999.90;999.90;;;;;;;12.23;100.00;94279.34;5103545;28;20176;-61
2023/05/12 06:09:56;;;;;;;1999.90;999.90;;;;;;;12.18;100.00;94310.00;5103586;28;20244;-61
2023/05/12 06:12:21;;;;;;;1999.90;999.90;;;;;;;12.22;100.00;94340.78;5103257;28;20219;-61
2023/05/12 06:14:46;;;;;;;1999.90;999.90;;;;;;;12.31;100.00;94363.53;5103596;28;20235;-63
2023/05/12 06:17:12;;;;;;;1999.90;999.90;;;;;;;12.29;100.00;94406.25;5103907;28;20226;-62
2023/05/12 06:19:37;;;;;;;1999.90;999.90;;;;;;;11.91;100.00;94468.38;5103895;28;20342;-62
2023/05/12 06:22:03;;;;;;;1999.90;999.90;;;;;;;12.06;100.00;94496.88;5107793;28;20172;-61
2023/05/12 06:24:28;;;;;;;1999.90;999.90;;;;;;;12.07;100.00;94515.59;5107793;28;20203;-62
2023/05/12 06:26:53;;;;;;;1999.90;999.90;;;;;;;12.11;100.00;94535.44;5107545;28;20311;-62
2023/05/12 06:29:20;;;;;;;1999.90;999.90;;;;;;;12.21;100.00;94552.75;5107243;28;20173;-62
2023/05/12 06:31:45;;;;;;;1999.90;999.90;;;;;;;12.31;100.00;94565.38;5107096;28;20295;-62
2023/05/12 06:34:11;;;;;;;1999.90;999.90;;;;;;;12.32;100.00;94575.13;5107053;28;20173;-63
2023/05/12 06:36:36;;;;;;;1999.90;999.90;;;;;;;12.25;100.00;94586.25;5107630;28;20177;-63
2023/05/12 06:39:01;;;;;;;1999.90;999.90;;;;;;;12.22;100.00;94619.97;5106933;28;20184;-63
2023/05/12 06:41:27;;;;;;;1999.90;999.90;;;;;;;11.84;100.00;94662.81;5107481;28;20172;-63
2023/05/12 06:43:52;;;;;;;1999.90;999.90;;;;;;;12.09;100.00;94671.16;5107181;28;20173;-62
2023/05/12 06:46:18;;;;;;;1999.90;999.90;;;;;;;12.26;100.00;94680.88;5106898;28;20213;-62
2023/05/12 06:48:43;;;;;;;1999.90;999.90;;;;;;;12.43;100.00;94701.53;5106897;28;20393;-62
2023/05/12 06:51:09;;;;;;;1999.90;999.90;;;;;;;12.46;100.00;94730.81;5106567;28;20200;-62
2023/05/12 06:53:36;;;;;;;1999.90;999.90;;;;;;;12.53;100.00;94749.81;5107234;28;20179;-63
2023/05/12 06:56:03;;;;;;;1999.90;999.90;;;;;;;12.80;100.00;94767.47;5106557;28;20196;-61
2023/05/12 06:58:29;;;;;;;1999.90;999.90;;;;;;;12.70;100.00;94797.84;5106634;28;20173;-61
2023/05/12 07:00:54;;;;;;;1999.90;999.90;;;;;;;12.75;100.00;94824.75;5106491;28;20176;-63
2023/05/12 07:03:20;;;;;;;1999.90;999.90;;;;;;;12.82;100.00;94838.28;5106600;28;20233;-62
2023/05/12 07:05:45;;;;;;;1999.90;999.90;;;;;;;13.12;100.00;94840.63;5106626;28;20168;-62
2023/05/12 07:08:11;;;;;;;1999.90;999.90;;;;;;;13.56;100.00;94848.00;5106429;28;20172;-62
2023/05/12 07:10:36;;;;;;;1999.90;999.90;;;;;;;13.87;100.00;94890.22;5106829;28;20180;-62
2023/05/12 07:13:03;;;;;;;1999.90;999.90;;;;;;;13.86;100.00;94899.66;5106367;28;20263;-63
2023/05/12 07:15:28;;;;;;;1999.90;999.90;;;;;;;13.56;100.00;94930.31;5106851;28;20199;-62
2023/05/12 07:17:54;;;;;;;1999.90;999.90;;;;;;;13.60;100.00;94931.00;5106306;28;20173;-65
2023/05/12 07:20:20;;;;;;;1999.90;999.90;;;;;;;13.60;100.00;94935.69;5105960;28;20262;-62
2023/05/12 07:22:46;;;;;;;1999.90;999.90;;;;;;;13.59;100.00;94945.91;5106226;28;20169;-63
2023/05/12 07:25:12;;;;;;;1999.90;999.90;;;;;;;13.67;100.00;94947.25;5106035;28;20171;-64
2023/05/12 07:27:37;;;;;;;1999.90;999.90;;;;;;;13.67;100.00;94952.75;5106597;28;20201;-64
2023/05/12 07:30:05;;;;;;;1999.90;999.90;;;;;;;13.76;100.00;94963.84;5105785;28;20172;-64
2023/05/12 07:32:30;;;;;;;1999.90;999.90;;;;;;;14.53;100.00;94958.88;5105718;28;20224;-64
2023/05/12 07:34:55;;;;;;;1999.90;999.90;;;;;;;14.72;100.00;94971.63;5106361;28;20169;-64
2023/05/12 07:37:21;;;;;;;1999.90;999.90;;;;;;;14.77;100.00;94979.34;5106434;28;20199;-63
2023/05/12 07:39:46;;;;;;;1999.90;999.90;;;;;;;15.08;100.00;94991.31;5105815;28;20226;-64
2023/05/12 07:42:11;;;;;;;1999.90;999.90;;;;;;;14.98;100.00;94994.41;5106018;28;20240;-61
2023/05/12 07:44:37;;;;;;;1999.90;999.90;;;;;;;15.05;100.00;95000.44;5105694;28;20192;-62
2023/05/12 07:47:02;;;;;;;1999.90;999.90;;;;;;;15.31;100.00;94996.47;5106084;28;20168;-64
2023/05/12 07:49:27;;;;;;;1999.90;999.90;;;;;;;15.39;100.00;95006.06;5105587;28;20195;-63
2023/05/12 07:51:53;;;;;;;1999.90;999.90;;;;;;;15.29;100.00;95004.41;5105362;28;20494;-62
2023/05/12 07:54:19;;;;;;;1999.90;999.90;;;;;;;14.78;100.00;95013.88;5106295;28;20165;-62
2023/05/12 07:56:44;;;;;;;1999.90;999.90;;;;;;;14.51;100.00;95013.53;5106031;28;20221;-62
2023/05/12 07:59:10;;;;;;;1999.90;999.90;;;;;;;14.10;100.00;95010.78;5105281;28;20172;-63
2023/05/12 08:01:36;;;;;;;1999.90;999.90;;;;;;;14.43;100.00;95011.44;5105371;28;20175;-64
2023/05/12 08:04:01;;;;;;;1999.90;999.90;;;;;;;14.41;100.00;95011.84;5105676;28;20165;-63
2023/05/12 08:06:26;;;;;;;1999.90;999.90;;;;;;;14.24;100.00;95007.63;5105598;28;20171;-61
2023/05/12 08:08:52;;;;;;;1999.90;999.90;;;;;;;14.11;100.00;95006.81;5105486;28;20168;-62
2023/05/12 08:11:17;;;;;;;1999.90;999.90;;;;;;;14.18;100.00;95000.34;5105050;28;20197;-63
2023/05/12 08:13:43;;;;;;;1999.90;999.90;;;;;;;14.32;100.00;94999.97;5105005;28;20176;-64
2023/05/12 08:16:08;;;;;;;1999.90;999.90;;;;;;;14.51;100.00;95005.28;5105255;28;20237;-63
2023/05/12 08:18:33;;;;;;;1999.90;999.90;;;;;;;14.16;100.00;95005.53;5104940;28;20224;-64
2023/05/12 08:20:58;;;;;;;1999.90;999.90;;;;;;;13.74;100.00;95001.97;5104974;28;20321;-63
2023/05/12 08:23:24;;;;;;;1999.90;999.90;;;;;;;14.29;100.00;95004.38;5105468;28;20220;-64
2023/05/12 08:25:49;;;;;;;1999.90;999.90;;;;;;;14.24;100.00;95007.63;5104877;28;20172;-63
2023/05/12 08:28:15;;;;;;;1999.90;999.90;;;;;;;14.05;100.00;95005.00;5104824;28;20171;-62
2023/05/12 08:30:41;;;;;;;1999.90;999.90;;;;;;;13.88;100.00;95007.03;5105385;28;20165;-63
2023/05/12 08:33:06;;;;;;;1999.90;999.90;;;;;;;13.92;100.00;95018.72;5104754;28;20188;-64
2023/05/12 08:35:32;;;;;;;1999.90;999.90;;;;;;;14.45;100.00;95012.53;5104757;28;20217;-64
2023/05/12 08:37:58;;;;;;;1999.90;999.90;;;;;;;14.57;100.00;95020.00;5105082;28;20164;-63
2023/05/12 08:40:25;;;;;;;1999.90;999.90;;;;;;;14.50;100.00;95025.72;5104554;28;20173;-62
2023/05/12 08:43:06;;;;;;;1999.90;999.90;;;;;;;14.59;100.00;95019.56;5103778;28;20179;-62
2023/05/12 08:45:36;;;;;;;1999.90;999.90;;;;;;;14.69;100.00;95016.53;5104750;28;20230;-63
2023/05/12 08:48:03;;;;;;;1999.90;999.90;;;;;;;15.10;100.00;95024.66;5104478;28;20212;-64
2023/05/12 08:50:30;;;;;;;1999.90;999.90;;;;;;;15.41;100.00;95028.38;5105006;28;20168;-62
2023/05/12 08:52:55;;;;;;;1999.90;999.90;;;;;;;15.81;100.00;95037.66;5105005;28;20210;-64
2023/05/12 08:55:22;;;;;;;1999.90;999.90;;;;;;;15.53;100.00;95035.88;5104553;28;20168;-63
2023/05/12 08:57:48;;;;;;;1999.90;999.90;;;;;;;16.97;100.00;95035.44;5104489;28;20213;-63
2023/05/12 09:00:15;;;;;;;1999.90;999.90;;;;;;;17.70;100.00;95032.47;5104316;28;20191;-64
2023/05/12 09:02:42;;;;;;;1999.90;999.90;;;;;;;17.20;100.00;95043.19;5104264;28;20243;-63
2023/05/12 09:05:10;;;;;;;1999.90;999.90;;;;;;;16.68;100.00;95040.50;5104190;28;20173;-64
2023/05/12 09:07:41;;;;;;;1999.90;999.90;;;;;;;15.87;100.00;95044.16;5104995;28;20177;-64
2023/05/12 09:10:14;;;;;;;1999.90;999.90;;;;;;;15.72;100.00;95042.31;5104237;28;20192;-63
2023/05/12 09:12:41;;;;;;;1999.90;999.90;;;;;;;15.31;100.00;95035.00;5104590;28;20207;-62
2023/05/12 09:15:10;;;;;;;1999.90;999.90;;;;;;;15.31;100.00;95040.50;5104643;28;20168;-64
2023/05/12 09:17:36;;;;;;;1999.90;999.90;;;;;;;15.20;100.00;95039.28;5104158;28;20175;-63
2023/05/12 09:20:02;;;;;;;1999.90;999.90;;;;;;;14.99;100.00;95046.22;5103949;28;20216;-62
2023/05/12 09:22:35;;;;;;;1999.90;999.90;;;;;;;14.83;100.00;95043.56;5104048;28;20239;-63
2023/05/12 09:25:13;;;;;;;1999.90;999.90;;;;;;;14.91;100.00;95042.16;5104536;28;20265;-62
2023/05/12 09:27:39;;;;;;;1999.90;999.90;;;;;;;14.70;100.00;95040.03;5104611;28;20175;-63
2023/05/12 09:30:05;;;;;;;1999.90;999.90;;;;;;;15.04;100.00;95037.41;5104417;28;20232;-62
2023/05/12 09:32:32;;;;;;;1999.90;999.90;;;;;;;15.29;100.00;95031.13;5103786;28;20259;-62
2023/05/12 09:35:05;;;;;;;1999.90;999.90;;;;;;;15.04;100.00;95047.66;5103901;28;20278;-64
2023/05/12 09:37:31;;;;;;;1999.90;999.90;;;;;;;15.46;100.00;95046.34;5104469;28;20244;-62
2023/05/12 09:40:06;;;;;;;1999.90;999.90;;;;;;;15.66;100.00;95044.88;5103728;28;20196;-64
2023/05/12 09:42:32;;;;;;;1999.90;999.90;;;;;;;15.58;100.00;95043.56;5104350;28;20172;-62
2023/05/12 09:45:05;;;;;;;1999.90;999.90;;;;;;;15.73;100.00;95043.84;5103726;28;20422;-62
2023/05/12 09:47:38;;;;;;;1999.90;999.90;;;;;;;15.46;100.00;95040.84;5103826;28;20200;-62
2023/05/12 09:50:05;;;;;;;1999.90;999.90;;;;;;;15.24;100.00;95040.72;5103613;28;20179;-62
2023/05/12 09:52:35;;;;;;;1999.90;999.90;;;;;;;14.90;100.00;95048.84;5103636;28;20210;-62
2023/05/12 09:55:09;;;;;;;1999.90;999.90;;;;;;;14.69;100.00;95040.47;5106984;28;20175;-63
2023/05/12 09:57:44;;;;;;;1999.90;999.90;;;;;;;14.71;100.00;95041.56;5108372;28;20172;-62
2023/05/12 10:00:16;;;;;;;1999.90;999.90;;;;;;;14.60;100.00;95043.88;5108234;28;20174;-61
2023/05/12 10:02:41;;;;;;;1999.90;999.90;;;;;;;14.79;100.00;95033.91;5108300;28;20176;-62
2023/05/12 10:05:15;;;;;;;1999.90;999.90;;;;;;;14.82;100.00;95036.53;5107771;28;20175;-62
2023/05/12 10:07:47;;;;;;;1999.90;999.90;;;;;;;14.87;100.00;95035.22;5108226;28;20175;-63
2023/05/12 10:10:22;;;;;;;1999.90;999.90;;;;;;;15.04;100.00;95031.91;5107908;28;20171;-62
2023/05/12 10:12:48;;;;;;;1999.90;999.90;;;;;;;15.06;100.00;95043.25;5107832;28;20223;-62
2023/05/12 10:15:16;;;;;;;1999.90;999.90;;;;;;;15.25;100.00;95047.75;5107950;28;20176;-62
2023/05/12 10:17:43;;;;;;;1999.90;999.90;;;;;;;15.38;100.00;95045.81;5107576;28;20196;-62
2023/05/12 10:20:10;;;;;;;1999.90;999.90;;;;;;;15.55;100.00;95049.94;5107131;28;20242;-63
2023/05/12 10:22:39;;;;;;;1999.90;999.90;;;;;;;15.03;100.00;95046.88;5107927;28;20176;-63
2023/05/12 10:25:05;;;;;;;1999.90;999.90;;;;;;;15.24;100.00;95050.94;5107784;28;20214;-63
2023/05/12 10:27:32;;;;;;;1999.90;999.90;;;;;;;15.18;100.00;95053.47;5107368;28;20169;-62
2023/05/12 10:29:59;;;;;;;1999.90;999.90;;;;;;;15.50;100.00;95050.53;5107594;28;20164;-62
2023/05/12 10:32:25;;;;;;;1999.90;999.90;;;;;;;15.16;100.00;95055.91;5107632;28;20200;-63
2023/05/12 10:34:51;;;;;;;1999.90;999.90;;;;;;;15.00;100.00;95052.47;5107151;28;20376;-62
2023/05/12 10:37:17;;;;;;;1999.90;999.90;;;;;;;15.15;100.00;95064.63;5107648;28;20239;-63
2023/05/12 10:39:50;;;;;;;1999.90;999.90;;;;;;;15.26;100.00;95057.56;5107611;28;20169;-62
2023/05/12 10:42:23;;;;;;;1999.90;999.90;;;;;;;15.19;100.00;95049.53;5106683;28;20183;-64
2023/05/12 10:44:53;;;;;;;1999.90;999.90;;;;;;;15.51;100.00;95052.06;5107401;28;20188;-64